sensor_id;sensor_type;location;lat;lon;timestamp;P1;durP1;ratioP1;P2;durP2;ratioP2
23743;SDS011;12052;53.478;10.182;2023-02-01T00:00:03;19.08;;;2.17;;
23743;SDS011;12052;53.478;10.182;2023-02-01T00:02:29;26.40;;;2.92;;
23743;SDS011;12052;53.478;10.182;2023-02-01T00:04:55;16.38;;;2.45;;
23743;SDS011;12052;53.478;10.182;2023-02-01T00:07:20;17.98;;;2.80;;
23743;SDS011;12052;53.478;10.182;2023-02-01T00:09:46;16.90;;;2.63;;
23743;SDS011;12052;53.478;10.182;2023-02-01T00:12:12;23.33;;;2.92;;
23743;SDS011;12052;53.478;10.182;2023-02-01T00:14:37;26.98;;;2.95;;
23743;SDS011;12052;53.478;10.182;2023-02-01T00:17:07;18.17;;;2.42;;
23743;SDS011;12052;53.478;10.182;2023-02-01T00:19:33;23.92;;;2.75;;
23743;SDS011;12052;53.478;10.182;2023-02-01T00:21:59;19.55;;;2.65;;
23743;SDS011;12052;53.478;10.182;2023-02-01T00:24:25;18.60;;;2.67;;
23743;SDS011;12052;53.478;10.182;2023-02-01T00:26:50;30.63;;;3.30;;
23743;SDS011;12052;53.478;10.182;2023-02-01T00:29:17;26.45;;;3.15;;
23743;SDS011;12052;53.478;10.182;2023-02-01T00:31:44;18.40;;;2.38;;
23743;SDS011;12052;53.478;10.182;2023-02-01T00:34:14;26.30;;;3.38;;
23743;SDS011;12052;53.478;10.182;2023-02-01T00:36:41;25.83;;;3.10;;
23743;SDS011;12052;53.478;10.182;2023-02-01T00:39:08;21.98;;;2.22;;
23743;SDS011;12052;53.478;10.182;2023-02-01T00:41:34;23.25;;;2.80;;
23743;SDS011;12052;53.478;10.182;2023-02-01T00:44:00;38.33;;;4.78;;
23743;SDS011;12052;53.478;10.182;2023-02-01T00:46:26;13.48;;;3.08;;
23743;SDS011;12052;53.478;10.182;2023-02-01T00:48:52;19.95;;;3.47;;
23743;SDS011;12052;53.478;10.182;2023-02-01T00:51:20;33.13;;;3.35;;
23743;SDS011;12052;53.478;10.182;2023-02-01T00:53:47;24.75;;;3.63;;
23743;SDS011;12052;53.478;10.182;2023-02-01T00:56:13;21.35;;;3.17;;
23743;SDS011;12052;53.478;10.182;2023-02-01T00:58:39;17.13;;;2.70;;
23743;SDS011;12052;53.478;10.182;2023-02-01T01:03:37;33.78;;;3.90;;
23743;SDS011;12052;53.478;10.182;2023-02-01T01:06:06;22.48;;;2.83;;
23743;SDS011;12052;53.478;10.182;2023-02-01T01:08:34;22.38;;;3.22;;
23743;SDS011;12052;53.478;10.182;2023-02-01T01:11:04;28.85;;;3.90;;
23743;SDS011;12052;53.478;10.182;2023-02-01T01:13:40;32.78;;;3.70;;
23743;SDS011;12052;53.478;10.182;2023-02-01T01:16:07;28.23;;;3.72;;
23743;SDS011;12052;53.478;10.182;2023-02-01T01:18:35;24.50;;;3.60;;
23743;SDS011;12052;53.478;10.182;2023-02-01T01:21:02;27.05;;;3.65;;
23743;SDS011;12052;53.478;10.182;2023-02-01T01:23:29;33.13;;;3.42;;
23743;SDS011;12052;53.478;10.182;2023-02-01T01:25:55;30.75;;;4.18;;
23743;SDS011;12052;53.478;10.182;2023-02-01T01:28:21;30.08;;;4.35;;
23743;SDS011;12052;53.478;10.182;2023-02-01T01:30:46;29.73;;;3.63;;
23743;SDS011;12052;53.478;10.182;2023-02-01T01:33:12;26.02;;;3.47;;
23743;SDS011;12052;53.478;10.182;2023-02-01T01:35:38;24.58;;;3.50;;
23743;SDS011;12052;53.478;10.182;2023-02-01T01:38:03;28.92;;;4.05;;
23743;SDS011;12052;53.478;10.182;2023-02-01T01:40:29;33.63;;;3.88;;
23743;SDS011;12052;53.478;10.182;2023-02-01T01:42:55;33.97;;;4.65;;
23743;SDS011;12052;53.478;10.182;2023-02-01T01:45:25;29.80;;;3.35;;
23743;SDS011;12052;53.478;10.182;2023-02-01T01:47:59;26.85;;;3.50;;
23743;SDS011;12052;53.478;10.182;2023-02-01T01:50:33;25.75;;;3.30;;
23743;SDS011;12052;53.478;10.182;2023-02-01T01:53:04;19.60;;;2.90;;
23743;SDS011;12052;53.478;10.182;2023-02-01T01:55:33;34.38;;;4.07;;
23743;SDS011;12052;53.478;10.182;2023-02-01T01:58:06;26.63;;;3.92;;
23743;SDS011;12052;53.478;10.182;2023-02-01T02:00:37;24.75;;;3.38;;
23743;SDS011;12052;53.478;10.182;2023-02-01T02:03:45;35.88;;;3.60;;
23743;SDS011;12052;53.478;10.182;2023-02-01T02:06:00;17.95;;;2.72;;
23743;SDS011;12052;53.478;10.182;2023-02-01T02:08:27;27.30;;;3.30;;
23743;SDS011;12052;53.478;10.182;2023-02-01T02:10:53;27.58;;;3.55;;
23743;SDS011;12052;53.478;10.182;2023-02-01T02:13:35;25.08;;;3.20;;
23743;SDS011;12052;53.478;10.182;2023-02-01T02:16:05;22.38;;;4.32;;
23743;SDS011;12052;53.478;10.182;2023-02-01T02:18:44;28.40;;;3.05;;
23743;SDS011;12052;53.478;10.182;2023-02-01T02:24:27;29.83;;;3.42;;
23743;SDS011;12052;53.478;10.182;2023-02-01T02:35:24;30.20;;;3.95;;
23743;SDS011;12052;53.478;10.182;2023-02-01T02:38:12;24.15;;;4.20;;
23743;SDS011;12052;53.478;10.182;2023-02-01T02:43:21;24.83;;;3.60;;
23743;SDS011;12052;53.478;10.182;2023-02-01T02:46:29;27.42;;;3.00;;
23743;SDS011;12052;53.478;10.182;2023-02-01T02:49:34;23.40;;;3.00;;
23743;SDS011;12052;53.478;10.182;2023-02-01T02:52:13;35.58;;;4.13;;
23743;SDS011;12052;53.478;10.182;2023-02-01T02:55:01;31.77;;;3.08;;
23743;SDS011;12052;53.478;10.182;2023-02-01T02:57:31;27.00;;;3.60;;
23743;SDS011;12052;53.478;10.182;2023-02-01T03:00:20;20.33;;;3.95;;
23743;SDS011;12052;53.478;10.182;2023-02-01T03:03:07;26.05;;;3.85;;
23743;SDS011;12052;53.478;10.182;2023-02-01T03:05:51;29.02;;;3.78;;
23743;SDS011;12052;53.478;10.182;2023-02-01T03:08:18;31.38;;;3.22;;
23743;SDS011;12052;53.478;10.182;2023-02-01T03:11:04;28.10;;;3.72;;
23743;SDS011;12052;53.478;10.182;2023-02-01T03:13:40;19.77;;;3.42;;
23743;SDS011;12052;53.478;10.182;2023-02-01T03:16:21;33.78;;;3.13;;
23743;SDS011;12052;53.478;10.182;2023-02-01T03:24:16;22.33;;;3.08;;
23743;SDS011;12052;53.478;10.182;2023-02-01T03:26:49;23.92;;;2.72;;
23743;SDS011;12052;53.478;10.182;2023-02-01T03:29:30;18.35;;;2.83;;
23743;SDS011;12052;53.478;10.182;2023-02-01T03:34:28;14.95;;;2.70;;
23743;SDS011;12052;53.478;10.182;2023-02-01T03:36:58;9.15;;;2.10;;
23743;SDS011;12052;53.478;10.182;2023-02-01T03:39:31;17.55;;;2.60;;
23743;SDS011;12052;53.478;10.182;2023-02-01T03:42:12;14.35;;;2.28;;
23743;SDS011;12052;53.478;10.182;2023-02-01T03:44:53;4.82;;;1.63;;
23743;SDS011;12052;53.478;10.182;2023-02-01T03:47:26;12.52;;;1.67;;
23743;SDS011;12052;53.478;10.182;2023-02-01T03:49:58;7.78;;;1.10;;
23743;SDS011;12052;53.478;10.182;2023-02-01T03:52:29;10.43;;;1.10;;
23743;SDS011;12052;53.478;10.182;2023-02-01T03:54:59;7.93;;;1.42;;
23743;SDS011;12052;53.478;10.182;2023-02-01T03:57:27;3.90;;;1.00;;
23743;SDS011;12052;53.478;10.182;2023-02-01T04:00:04;4.65;;;0.95;;
23743;SDS011;12052;53.478;10.182;2023-02-01T04:02:33;11.95;;;1.42;;
23743;SDS011;12052;53.478;10.182;2023-02-01T04:04:59;11.57;;;1.40;;
23743;SDS011;12052;53.478;10.182;2023-02-01T04:07:24;10.25;;;1.65;;
23743;SDS011;12052;53.478;10.182;2023-02-01T04:09:50;13.55;;;1.85;;
23743;SDS011;12052;53.478;10.182;2023-02-01T04:12:16;15.80;;;1.77;;
23743;SDS011;12052;53.478;10.182;2023-02-01T04:14:41;13.70;;;2.47;;
23743;SDS011;12052;53.478;10.182;2023-02-01T04:17:07;10.70;;;2.47;;
23743;SDS011;12052;53.478;10.182;2023-02-01T04:19:32;6.75;;;2.00;;
23743;SDS011;12052;53.478;10.182;2023-02-01T04:21:58;19.20;;;2.20;;
23743;SDS011;12052;53.478;10.182;2023-02-01T04:24:23;16.67;;;2.13;;
23743;SDS011;12052;53.478;10.182;2023-02-01T04:26:49;15.80;;;2.50;;
23743;SDS011;12052;53.478;10.182;2023-02-01T04:29:14;9.00;;;1.50;;
23743;SDS011;12052;53.478;10.182;2023-02-01T04:31:40;16.35;;;2.05;;
23743;SDS011;12052;53.478;10.182;2023-02-01T04:34:06;15.88;;;1.70;;
23743;SDS011;12052;53.478;10.182;2023-02-01T04:36:31;14.77;;;1.90;;
23743;SDS011;12052;53.478;10.182;2023-02-01T04:38:57;8.75;;;1.55;;
23743;SDS011;12052;53.478;10.182;2023-02-01T04:41:22;13.07;;;1.83;;
23743;SDS011;12052;53.478;10.182;2023-02-01T04:43:48;19.17;;;2.15;;
23743;SDS011;12052;53.478;10.182;2023-02-01T04:46:15;10.32;;;1.83;;
23743;SDS011;12052;53.478;10.182;2023-02-01T04:48:41;13.50;;;1.85;;
23743;SDS011;12052;53.478;10.182;2023-02-01T04:51:07;18.65;;;2.00;;
23743;SDS011;12052;53.478;10.182;2023-02-01T04:53:33;11.02;;;1.70;;
23743;SDS011;12052;53.478;10.182;2023-02-01T04:55:58;14.30;;;1.48;;
23743;SDS011;12052;53.478;10.182;2023-02-01T04:58:24;11.73;;;1.92;;
23743;SDS011;12052;53.478;10.182;2023-02-01T05:00:49;7.28;;;1.60;;
23743;SDS011;12052;53.478;10.182;2023-02-01T05:03:16;16.08;;;2.08;;
23743;SDS011;12052;53.478;10.182;2023-02-01T05:05:42;11.27;;;1.70;;
23743;SDS011;12052;53.478;10.182;2023-02-01T05:08:07;14.88;;;2.42;;
23743;SDS011;12052;53.478;10.182;2023-02-01T05:10:33;13.13;;;1.98;;
23743;SDS011;12052;53.478;10.182;2023-02-01T05:12:58;7.72;;;1.52;;
23743;SDS011;12052;53.478;10.182;2023-02-01T05:15:43;6.22;;;1.10;;
23743;SDS011;12052;53.478;10.182;2023-02-01T05:18:08;6.43;;;1.48;;
23743;SDS011;12052;53.478;10.182;2023-02-01T05:20:34;5.78;;;1.13;;
23743;SDS011;12052;53.478;10.182;2023-02-01T05:22:59;2.55;;;0.73;;
23743;SDS011;12052;53.478;10.182;2023-02-01T05:25:25;1.60;;;0.50;;
23743;SDS011;12052;53.478;10.182;2023-02-01T05:27:50;4.90;;;1.05;;
23743;SDS011;12052;53.478;10.182;2023-02-01T05:30:16;2.20;;;0.70;;
23743;SDS011;12052;53.478;10.182;2023-02-01T05:32:42;3.75;;;0.90;;
23743;SDS011;12052;53.478;10.182;2023-02-01T05:35:07;1.85;;;0.50;;
23743;SDS011;12052;53.478;10.182;2023-02-01T05:37:33;0.75;;;0.60;;
23743;SDS011;12052;53.478;10.182;2023-02-01T05:39:59;3.10;;;0.85;;
23743;SDS011;12052;53.478;10.182;2023-02-01T05:42:25;3.35;;;0.65;;
23743;SDS011;12052;53.478;10.182;2023-02-01T05:44:50;1.05;;;0.45;;
23743;SDS011;12052;53.478;10.182;2023-02-01T05:47:16;3.45;;;0.52;;
23743;SDS011;12052;53.478;10.182;2023-02-01T05:49:41;2.65;;;1.08;;
23743;SDS011;12052;53.478;10.182;2023-02-01T05:52:07;4.97;;;0.52;;
23743;SDS011;12052;53.478;10.182;2023-02-01T05:54:33;3.05;;;1.27;;
23743;SDS011;12052;53.478;10.182;2023-02-01T05:56:58;0.80;;;0.43;;
23743;SDS011;12052;53.478;10.182;2023-02-01T05:59:24;1.10;;;0.38;;
23743;SDS011;12052;53.478;10.182;2023-02-01T06:01:50;1.50;;;0.43;;
23743;SDS011;12052;53.478;10.182;2023-02-01T06:04:15;0.45;;;0.45;;
23743;SDS011;12052;53.478;10.182;2023-02-01T06:06:41;1.08;;;0.60;;
23743;SDS011;12052;53.478;10.182;2023-02-01T06:09:06;3.50;;;0.75;;
23743;SDS011;12052;53.478;10.182;2023-02-01T06:11:32;2.65;;;0.90;;
23743;SDS011;12052;53.478;10.182;2023-02-01T06:13:58;2.58;;;0.73;;
23743;SDS011;12052;53.478;10.182;2023-02-01T06:16:24;2.70;;;0.88;;
23743;SDS011;12052;53.478;10.182;2023-02-01T06:18:49;1.23;;;0.52;;
23743;SDS011;12052;53.478;10.182;2023-02-01T06:21:15;1.63;;;0.82;;
23743;SDS011;12052;53.478;10.182;2023-02-01T06:23:48;4.07;;;0.80;;
23743;SDS011;12052;53.478;10.182;2023-02-01T06:26:15;3.10;;;0.75;;
23743;SDS011;12052;53.478;10.182;2023-02-01T06:28:42;1.88;;;0.80;;
23743;SDS011;12052;53.478;10.182;2023-02-01T06:31:08;3.40;;;0.70;;
23743;SDS011;12052;53.478;10.182;2023-02-01T06:33:34;1.98;;;1.27;;
23743;SDS011;12052;53.478;10.182;2023-02-01T06:36:01;5.03;;;1.05;;
23743;SDS011;12052;53.478;10.182;2023-02-01T06:38:28;7.50;;;0.95;;
23743;SDS011;12052;53.478;10.182;2023-02-01T06:40:55;8.68;;;1.45;;
23743;SDS011;12052;53.478;10.182;2023-02-01T06:43:22;10.70;;;3.55;;
23743;SDS011;12052;53.478;10.182;2023-02-01T06:45:49;9.50;;;1.63;;
23743;SDS011;12052;53.478;10.182;2023-02-01T06:48:15;15.55;;;4.75;;
23743;SDS011;12052;53.478;10.182;2023-02-01T06:50:40;11.45;;;2.78;;
23743;SDS011;12052;53.478;10.182;2023-02-01T06:53:06;9.73;;;2.22;;
23743;SDS011;12052;53.478;10.182;2023-02-01T06:55:32;6.43;;;2.33;;
23743;SDS011;12052;53.478;10.182;2023-02-01T06:57:57;15.23;;;4.38;;
23743;SDS011;12052;53.478;10.182;2023-02-01T07:00:23;8.23;;;1.70;;
23743;SDS011;12052;53.478;10.182;2023-02-01T07:02:49;12.73;;;2.60;;
23743;SDS011;12052;53.478;10.182;2023-02-01T07:05:15;16.17;;;1.95;;
23743;SDS011;12052;53.478;10.182;2023-02-01T07:07:40;16.27;;;2.13;;
23743;SDS011;12052;53.478;10.182;2023-02-01T07:10:06;19.92;;;2.38;;
23743;SDS011;12052;53.478;10.182;2023-02-01T07:12:32;14.07;;;2.63;;
23743;SDS011;12052;53.478;10.182;2023-02-01T07:14:57;24.48;;;2.60;;
23743;SDS011;12052;53.478;10.182;2023-02-01T07:17:23;14.77;;;2.15;;
23743;SDS011;12052;53.478;10.182;2023-02-01T07:19:49;13.23;;;1.92;;
23743;SDS011;12052;53.478;10.182;2023-02-01T07:22:17;18.95;;;2.35;;
23743;SDS011;12052;53.478;10.182;2023-02-01T07:24:43;19.83;;;2.53;;
23743;SDS011;12052;53.478;10.182;2023-02-01T07:27:08;16.80;;;2.47;;
23743;SDS011;12052;53.478;10.182;2023-02-01T07:29:34;15.13;;;3.53;;
23743;SDS011;12052;53.478;10.182;2023-02-01T07:31:59;18.05;;;2.00;;
23743;SDS011;12052;53.478;10.182;2023-02-01T07:34:27;12.32;;;2.42;;
23743;SDS011;12052;53.478;10.182;2023-02-01T07:36:53;21.73;;;2.28;;
23743;SDS011;12052;53.478;10.182;2023-02-01T07:39:18;20.30;;;2.10;;
23743;SDS011;12052;53.478;10.182;2023-02-01T07:41:45;18.73;;;2.40;;
23743;SDS011;12052;53.478;10.182;2023-02-01T07:44:10;17.70;;;3.17;;
23743;SDS011;12052;53.478;10.182;2023-02-01T07:46:36;18.98;;;2.00;;
23743;SDS011;12052;53.478;10.182;2023-02-01T07:49:03;19.25;;;2.28;;
23743;SDS011;12052;53.478;10.182;2023-02-01T07:51:29;17.90;;;2.40;;
23743;SDS011;12052;53.478;10.182;2023-02-01T07:53:54;20.20;;;3.10;;
23743;SDS011;12052;53.478;10.182;2023-02-01T07:56:20;16.13;;;2.55;;
23743;SDS011;12052;53.478;10.182;2023-02-01T07:58:51;16.60;;;2.33;;
23743;SDS011;12052;53.478;10.182;2023-02-01T08:01:23;17.55;;;3.00;;
23743;SDS011;12052;53.478;10.182;2023-02-01T08:03:51;19.42;;;2.80;;
23743;SDS011;12052;53.478;10.182;2023-02-01T08:06:18;17.13;;;2.67;;
23743;SDS011;12052;53.478;10.182;2023-02-01T08:08:45;19.05;;;2.45;;
23743;SDS011;12052;53.478;10.182;2023-02-01T08:11:12;28.75;;;3.55;;
23743;SDS011;12052;53.478;10.182;2023-02-01T08:13:38;16.42;;;3.58;;
23743;SDS011;12052;53.478;10.182;2023-02-01T08:16:05;21.23;;;3.72;;
23743;SDS011;12052;53.478;10.182;2023-02-01T08:18:32;23.15;;;3.17;;
23743;SDS011;12052;53.478;10.182;2023-02-01T08:21:02;35.83;;;3.80;;
23743;SDS011;12052;53.478;10.182;2023-02-01T08:23:38;25.33;;;2.75;;
23743;SDS011;12052;53.478;10.182;2023-02-01T08:28:31;29.55;;;4.05;;
23743;SDS011;12052;53.478;10.182;2023-02-01T08:30:57;19.48;;;2.50;;
23743;SDS011;12052;53.478;10.182;2023-02-01T08:33:22;28.88;;;4.00;;
23743;SDS011;12052;53.478;10.182;2023-02-01T08:35:48;27.10;;;3.47;;
23743;SDS011;12052;53.478;10.182;2023-02-01T08:38:14;31.92;;;3.35;;
23743;SDS011;12052;53.478;10.182;2023-02-01T08:40:39;26.67;;;3.13;;
23743;SDS011;12052;53.478;10.182;2023-02-01T08:43:06;40.28;;;3.85;;
23743;SDS011;12052;53.478;10.182;2023-02-01T08:45:32;24.80;;;3.42;;
23743;SDS011;12052;53.478;10.182;2023-02-01T08:47:58;39.35;;;3.95;;
23743;SDS011;12052;53.478;10.182;2023-02-01T08:50:24;25.67;;;2.85;;
23743;SDS011;12052;53.478;10.182;2023-02-01T08:52:51;26.48;;;3.65;;
23743;SDS011;12052;53.478;10.182;2023-02-01T08:55:17;25.83;;;3.50;;
23743;SDS011;12052;53.478;10.182;2023-02-01T08:57:44;20.10;;;3.05;;
23743;SDS011;12052;53.478;10.182;2023-02-01T09:00:11;32.85;;;3.47;;
23743;SDS011;12052;53.478;10.182;2023-02-01T09:02:38;21.13;;;3.85;;
23743;SDS011;12052;53.478;10.182;2023-02-01T09:05:04;28.23;;;2.97;;
23743;SDS011;12052;53.478;10.182;2023-02-01T09:07:31;27.67;;;3.92;;
23743;SDS011;12052;53.478;10.182;2023-02-01T09:09:58;34.75;;;3.92;;
23743;SDS011;12052;53.478;10.182;2023-02-01T09:12:26;33.53;;;3.65;;
23743;SDS011;12052;53.478;10.182;2023-02-01T09:14:53;28.85;;;3.33;;
23743;SDS011;12052;53.478;10.182;2023-02-01T09:17:19;17.48;;;3.45;;
23743;SDS011;12052;53.478;10.182;2023-02-01T09:19:45;24.50;;;3.67;;
23743;SDS011;12052;53.478;10.182;2023-02-01T09:22:10;28.95;;;3.03;;
23743;SDS011;12052;53.478;10.182;2023-02-01T09:24:36;26.98;;;3.25;;
23743;SDS011;12052;53.478;10.182;2023-02-01T09:27:02;23.05;;;2.67;;
23743;SDS011;12052;53.478;10.182;2023-02-01T09:29:27;21.80;;;2.92;;
23743;SDS011;12052;53.478;10.182;2023-02-01T09:31:53;32.30;;;3.83;;
23743;SDS011;12052;53.478;10.182;2023-02-01T09:34:19;25.55;;;2.75;;
23743;SDS011;12052;53.478;10.182;2023-02-01T09:36:44;20.58;;;2.38;;
23743;SDS011;12052;53.478;10.182;2023-02-01T09:39:10;24.85;;;3.47;;
23743;SDS011;12052;53.478;10.182;2023-02-01T09:47:19;20.52;;;3.08;;
23743;SDS011;12052;53.478;10.182;2023-02-01T09:49:56;19.90;;;2.78;;
23743;SDS011;12052;53.478;10.182;2023-02-01T09:52:33;23.10;;;2.25;;
23743;SDS011;12052;53.478;10.182;2023-02-01T09:55:04;19.42;;;3.35;;
23743;SDS011;12052;53.478;10.182;2023-02-01T09:57:53;17.45;;;3.50;;
23743;SDS011;12052;53.478;10.182;2023-02-01T10:00:23;19.67;;;3.90;;
23743;SDS011;12052;53.478;10.182;2023-02-01T10:02:52;30.77;;;3.35;;
23743;SDS011;12052;53.478;10.182;2023-02-01T10:05:34;24.30;;;3.05;;
23743;SDS011;12052;53.478;10.182;2023-02-01T10:10:57;23.88;;;4.32;;
23743;SDS011;12052;53.478;10.182;2023-02-01T10:14:29;21.15;;;2.45;;
23743;SDS011;12052;53.478;10.182;2023-02-01T10:16:45;17.17;;;2.38;;
23743;SDS011;12052;53.478;10.182;2023-02-01T10:22:37;28.80;;;2.78;;
23743;SDS011;12052;53.478;10.182;2023-02-01T10:25:13;21.63;;;2.70;;
23743;SDS011;12052;53.478;10.182;2023-02-01T10:27:53;22.73;;;2.15;;
23743;SDS011;12052;53.478;10.182;2023-02-01T10:30:25;22.63;;;3.03;;
23743;SDS011;12052;53.478;10.182;2023-02-01T10:32:57;29.55;;;3.30;;
23743;SDS011;12052;53.478;10.182;2023-02-01T10:35:37;14.23;;;2.25;;
23743;SDS011;12052;53.478;10.182;2023-02-01T10:38:03;13.00;;;2.95;;
23743;SDS011;12052;53.478;10.182;2023-02-01T10:40:37;22.10;;;3.10;;
23743;SDS011;12052;53.478;10.182;2023-02-01T10:43:02;21.63;;;2.75;;
23743;SDS011;12052;53.478;10.182;2023-02-01T10:45:32;19.10;;;2.67;;
23743;SDS011;12052;53.478;10.182;2023-02-01T10:47:59;25.58;;;3.28;;
23743;SDS011;12052;53.478;10.182;2023-02-01T10:53:04;22.45;;;2.22;;
23743;SDS011;12052;53.478;10.182;2023-02-01T10:58:43;15.75;;;2.40;;
23743;SDS011;12052;53.478;10.182;2023-02-01T11:01:08;25.65;;;3.08;;
23743;SDS011;12052;53.478;10.182;2023-02-01T11:03:44;16.83;;;2.40;;
23743;SDS011;12052;53.478;10.182;2023-02-01T11:08:56;14.27;;;2.30;;
23743;SDS011;12052;53.478;10.182;2023-02-01T11:11:25;18.67;;;2.40;;
23743;SDS011;12052;53.478;10.182;2023-02-01T11:13:56;18.27;;;2.50;;
23743;SDS011;12052;53.478;10.182;2023-02-01T11:16:28;25.15;;;3.15;;
23743;SDS011;12052;53.478;10.182;2023-02-01T11:18:57;16.23;;;3.03;;
23743;SDS011;12052;53.478;10.182;2023-02-01T11:21:23;20.10;;;3.08;;
23743;SDS011;12052;53.478;10.182;2023-02-01T11:23:49;13.13;;;2.30;;
23743;SDS011;12052;53.478;10.182;2023-02-01T11:26:20;25.58;;;2.40;;
23743;SDS011;12052;53.478;10.182;2023-02-01T11:28:57;18.48;;;2.63;;
23743;SDS011;12052;53.478;10.182;2023-02-01T11:31:28;17.35;;;2.42;;
23743;SDS011;12052;53.478;10.182;2023-02-01T11:33:55;22.00;;;3.28;;
23743;SDS011;12052;53.478;10.182;2023-02-01T11:36:30;22.95;;;3.85;;
23743;SDS011;12052;53.478;10.182;2023-02-01T11:42:02;23.95;;;3.25;;
23743;SDS011;12052;53.478;10.182;2023-02-01T11:44:42;23.17;;;2.97;;
23743;SDS011;12052;53.478;10.182;2023-02-01T11:49:54;21.23;;;2.53;;
23743;SDS011;12052;53.478;10.182;2023-02-01T12:06:30;19.13;;;2.55;;
23743;SDS011;12052;53.478;10.182;2023-02-01T12:09:25;14.32;;;2.13;;
23743;SDS011;12052;53.478;10.182;2023-02-01T12:12:02;10.65;;;2.25;;
23743;SDS011;12052;53.478;10.182;2023-02-01T12:25:54;10.05;;;1.20;;
23743;SDS011;12052;53.478;10.182;2023-02-01T12:31:29;6.97;;;1.60;;
23743;SDS011;12052;53.478;10.182;2023-02-01T12:36:52;18.33;;;2.10;;
23743;SDS011;12052;53.478;10.182;2023-02-01T12:39:32;15.05;;;1.85;;
23743;SDS011;12052;53.478;10.182;2023-02-01T12:42:09;7.93;;;2.00;;
23743;SDS011;12052;53.478;10.182;2023-02-01T12:44:56;9.23;;;1.15;;
23743;SDS011;12052;53.478;10.182;2023-02-01T12:52:58;11.27;;;1.38;;
23743;SDS011;12052;53.478;10.182;2023-02-01T12:56:05;5.78;;;0.98;;
23743;SDS011;12052;53.478;10.182;2023-02-01T12:58:43;1.95;;;0.90;;
23743;SDS011;12052;53.478;10.182;2023-02-01T13:01:12;1.98;;;0.90;;
23743;SDS011;12052;53.478;10.182;2023-02-01T13:03:40;1.15;;;0.55;;
23743;SDS011;12052;53.478;10.182;2023-02-01T13:06:35;1.38;;;0.77;;
23743;SDS011;12052;53.478;10.182;2023-02-01T13:09:22;2.53;;;0.70;;
23743;SDS011;12052;53.478;10.182;2023-02-01T13:11:49;2.45;;;0.70;;
23743;SDS011;12052;53.478;10.182;2023-02-01T13:17:23;1.35;;;0.75;;
23743;SDS011;12052;53.478;10.182;2023-02-01T13:22:43;0.80;;;0.60;;
23743;SDS011;12052;53.478;10.182;2023-02-01T13:25:21;1.58;;;0.65;;
23743;SDS011;12052;53.478;10.182;2023-02-01T13:27:49;1.15;;;0.50;;
23743;SDS011;12052;53.478;10.182;2023-02-01T13:30:23;1.85;;;0.70;;
23743;SDS011;12052;53.478;10.182;2023-02-01T13:43:52;1.67;;;0.90;;
23743;SDS011;12052;53.478;10.182;2023-02-01T13:46:22;1.95;;;0.90;;
23743;SDS011;12052;53.478;10.182;2023-02-01T13:48:53;1.73;;;0.35;;
23743;SDS011;12052;53.478;10.182;2023-02-01T13:54:07;1.10;;;0.80;;
23743;SDS011;12052;53.478;10.182;2023-02-01T13:56:58;2.00;;;0.70;;
23743;SDS011;12052;53.478;10.182;2023-02-01T14:15:39;1.83;;;0.50;;
23743;SDS011;12052;53.478;10.182;2023-02-01T14:21:12;3.58;;;0.80;;
23743;SDS011;12052;53.478;10.182;2023-02-01T14:23:41;0.85;;;0.60;;
23743;SDS011;12052;53.478;10.182;2023-02-01T14:26:11;5.07;;;0.68;;
23743;SDS011;12052;53.478;10.182;2023-02-01T14:34:27;12.07;;;1.55;;
23743;SDS011;12052;53.478;10.182;2023-02-01T14:37:07;8.55;;;1.48;;
23743;SDS011;12052;53.478;10.182;2023-02-01T14:40:04;6.07;;;1.13;;
23743;SDS011;12052;53.478;10.182;2023-02-01T14:47:52;9.77;;;1.35;;
23743;SDS011;12052;53.478;10.182;2023-02-01T14:55:49;8.98;;;1.65;;
23743;SDS011;12052;53.478;10.182;2023-02-01T15:01:27;5.80;;;0.82;;
23743;SDS011;12052;53.478;10.182;2023-02-01T15:06:37;10.80;;;1.67;;
23743;SDS011;12052;53.478;10.182;2023-02-01T15:12:44;4.70;;;1.60;;
23743;SDS011;12052;53.478;10.182;2023-02-01T15:14:43;10.25;;;1.45;;
23743;SDS011;12052;53.478;10.182;2023-02-01T15:17:18;10.55;;;2.00;;
23743;SDS011;12052;53.478;10.182;2023-02-01T15:22:38;6.93;;;1.50;;
23743;SDS011;12052;53.478;10.182;2023-02-01T15:25:04;9.48;;;1.52;;
23743;SDS011;12052;53.478;10.182;2023-02-01T15:27:31;7.45;;;1.65;;
23743;SDS011;12052;53.478;10.182;2023-02-01T15:30:07;8.80;;;1.83;;
23743;SDS011;12052;53.478;10.182;2023-02-01T15:32:41;8.27;;;1.55;;
23743;SDS011;12052;53.478;10.182;2023-02-01T15:35:52;15.82;;;2.50;;
23743;SDS011;12052;53.478;10.182;2023-02-01T15:40:59;13.15;;;1.90;;
23743;SDS011;12052;53.478;10.182;2023-02-01T15:43:28;11.63;;;2.35;;
23743;SDS011;12052;53.478;10.182;2023-02-01T15:45:56;17.08;;;1.77;;
23743;SDS011;12052;53.478;10.182;2023-02-01T15:48:24;11.02;;;1.40;;
23743;SDS011;12052;53.478;10.182;2023-02-01T15:50:52;7.43;;;1.20;;
23743;SDS011;12052;53.478;10.182;2023-02-01T15:53:21;12.25;;;1.63;;
23743;SDS011;12052;53.478;10.182;2023-02-01T15:55:53;6.70;;;1.27;;
23743;SDS011;12052;53.478;10.182;2023-02-01T15:58:21;6.93;;;1.30;;
23743;SDS011;12052;53.478;10.182;2023-02-01T16:00:52;10.32;;;1.45;;
23743;SDS011;12052;53.478;10.182;2023-02-01T16:06:04;9.13;;;1.50;;
23743;SDS011;12052;53.478;10.182;2023-02-01T16:08:32;16.77;;;1.90;;
23743;SDS011;12052;53.478;10.182;2023-02-01T16:11:13;9.98;;;1.75;;
23743;SDS011;12052;53.478;10.182;2023-02-01T16:13:46;12.88;;;1.83;;
23743;SDS011;12052;53.478;10.182;2023-02-01T16:16:12;16.77;;;2.33;;
23743;SDS011;12052;53.478;10.182;2023-02-01T16:18:39;8.88;;;2.00;;
23743;SDS011;12052;53.478;10.182;2023-02-01T16:21:06;14.57;;;1.63;;
23743;SDS011;12052;53.478;10.182;2023-02-01T16:23:33;13.80;;;2.33;;
23743;SDS011;12052;53.478;10.182;2023-02-01T16:25:59;19.98;;;3.00;;
23743;SDS011;12052;53.478;10.182;2023-02-01T16:28:25;18.35;;;2.65;;
23743;SDS011;12052;53.478;10.182;2023-02-01T16:30:51;14.82;;;1.85;;
23743;SDS011;12052;53.478;10.182;2023-02-01T16:33:18;12.65;;;1.85;;
23743;SDS011;12052;53.478;10.182;2023-02-01T16:35:46;14.30;;;2.60;;
23743;SDS011;12052;53.478;10.182;2023-02-01T16:38:17;13.20;;;2.05;;
23743;SDS011;12052;53.478;10.182;2023-02-01T16:40:46;12.75;;;2.40;;
23743;SDS011;12052;53.478;10.182;2023-02-01T16:43:13;21.83;;;4.43;;
23743;SDS011;12052;53.478;10.182;2023-02-01T16:45:41;20.23;;;4.00;;
23743;SDS011;12052;53.478;10.182;2023-02-01T16:48:10;21.98;;;5.22;;
23743;SDS011;12052;53.478;10.182;2023-02-01T16:50:54;16.77;;;3.40;;
23743;SDS011;12052;53.478;10.182;2023-02-01T16:53:22;31.63;;;4.68;;
23743;SDS011;12052;53.478;10.182;2023-02-01T16:55:49;34.72;;;7.95;;
23743;SDS011;12052;53.478;10.182;2023-02-01T16:58:18;24.73;;;4.00;;
23743;SDS011;12052;53.478;10.182;2023-02-01T17:00:45;22.60;;;4.55;;
23743;SDS011;12052;53.478;10.182;2023-02-01T17:03:12;21.27;;;3.95;;
23743;SDS011;12052;53.478;10.182;2023-02-01T17:05:41;41.88;;;5.13;;
23743;SDS011;12052;53.478;10.182;2023-02-01T17:08:11;34.65;;;3.85;;
23743;SDS011;12052;53.478;10.182;2023-02-01T17:10:40;27.08;;;4.00;;
23743;SDS011;12052;53.478;10.182;2023-02-01T17:13:08;24.35;;;4.28;;
23743;SDS011;12052;53.478;10.182;2023-02-01T17:15:37;31.48;;;5.93;;
23743;SDS011;12052;53.478;10.182;2023-02-01T17:18:03;32.25;;;5.35;;
23743;SDS011;12052;53.478;10.182;2023-02-01T17:20:30;36.25;;;6.15;;
23743;SDS011;12052;53.478;10.182;2023-02-01T17:22:57;25.25;;;2.92;;